Time;durP1;ratioP1;P1;durP2;ratioP2;P2;SDS_P1;SDS_P2;PMS_P1;PMS_P2;Temp;Humidity;BMP_temperature;BMP_pressure;BME280_temperature;BME280_humidity;BME280_pressure;Samples;Min_cycle;Max_cycle;Signal;HPM_P1;HPM_P2
2023/02/07 00:00:50;;;;;;;;;16.25;16.25;;;;;;;;5027550;28;11479;-83
2023/02/07 00:03:18;;;;;;;;;20.75;18.00;;;;;;;;5046475;28;11564;-83
2023/02/07 00:05:45;;;;;;;;;25.00;23.33;;;;;;;;5050279;28;11613;-83
2023/02/07 00:08:15;;;;;;;;;23.50;22.50;;;;;;;;5045850;28;11712;-82
2023/02/07 00:10:42;;;;;;;;;20.50;18.25;;;;;;;;5028357;28;11530;-83
2023/02/07 00:13:10;;;;;;;;;24.50;17.50;;;;;;;;5029072;28;11712;-83
2023/02/07 00:15:37;;;;;;;;;15.75;13.25;;;;;;;;5048293;28;11644;-83
2023/02/07 00:18:05;;;;;;;;;21.50;21.25;;;;;;;;5026652;28;11559;-83
2023/02/07 00:20:32;;;;;;;;;19.00;17.50;;;;;;;;5044511;28;11538;-82
2023/02/07 00:23:00;;;;;;;;;22.00;20.50;;;;;;;;5026031;28;12355;-83
2023/02/07 00:25:31;;;;;;;;;27.00;18.50;;;;;;;;5031401;28;11589;-82
2023/02/07 00:27:59;;;;;;;;;16.00;13.00;;;;;;;;5028124;28;11606;-82
2023/02/07 00:30:27;;;;;;;;;21.00;19.25;;;;;;;;5008280;28;11499;-82
2023/02/07 00:32:54;;;;;;;;;20.75;20.75;;;;;;;;5044882;28;11529;-82
2023/02/07 00:35:22;;;;;;;;;21.50;18.25;;;;;;;;5045994;28;11544;-82
2023/02/07 00:37:50;;;;;;;;;27.50;22.25;;;;;;;;5025808;28;11559;-81
2023/02/07 00:40:18;;;;;;;;;19.33;19.33;;;;;;;;5023884;28;11543;-81
2023/02/07 00:42:47;;;;;;;;;37.33;29.67;;;;;;;;5044722;28;11704;-82
2023/02/07 00:45:15;;;;;;;;;24.33;17.33;;;;;;;;5044411;28;11955;-82
2023/02/07 00:47:43;;;;;;;;;30.00;23.67;;;;;;;;5042764;28;11640;-82
2023/02/07 00:50:11;;;;;;;;;32.33;28.33;;;;;;;;5024149;28;11550;-82
2023/02/07 00:52:38;;;;;;;;;28.00;25.00;;;;;;;;5028354;28;11551;-83
2023/02/07 00:55:09;;;;;;;;;26.67;24.00;;;;;;;;5026123;28;11614;-83
2023/02/07 00:57:37;;;;;;;;;26.33;24.00;;;;;;;;5040565;28;11498;-83
2023/02/07 01:00:09;;;;;;;;;28.67;25.33;;;;;;;;5033430;28;11536;-83
2023/02/07 01:02:37;;;;;;;;;27.67;24.33;;;;;;;;5031173;28;11496;-83
2023/02/07 01:05:05;;;;;;;;;29.33;27.00;;;;;;;;5047913;28;11566;-83
2023/02/07 01:07:33;;;;;;;;;26.00;24.33;;;;;;;;5030995;28;11578;-82
2023/02/07 01:10:01;;;;;;;;;28.33;26.00;;;;;;;;5028805;28;11588;-83
2023/02/07 01:12:29;;;;;;;;;25.00;21.00;;;;;;;;5035096;28;11742;-82
2023/02/07 01:14:56;;;;;;;;;29.00;22.00;;;;;;;;5050574;28;11556;-83
2023/02/07 01:17:27;;;;;;;;;26.00;26.00;;;;;;;;5010031;28;11561;-81
2023/02/07 01:19:58;;;;;;;;;26.00;23.67;;;;;;;;5014901;28;11578;-82
2023/02/07 01:22:25;;;;;;;;;29.33;21.33;;;;;;;;5052924;28;11524;-82
2023/02/07 01:24:53;;;;;;;;;14.00;14.00;;;;;;;;5014272;28;11561;-81
2023/02/07 01:27:21;;;;;;;;;18.33;18.33;;;;;;;;5049888;28;11502;-83
2023/02/07 01:29:49;;;;;;;;;16.33;16.33;;;;;;;;5030579;28;11519;-83
2023/02/07 01:32:16;;;;;;;;;29.00;24.33;;;;;;;;5044360;28;11494;-83
2023/02/07 01:34:45;;;;;;;;;29.00;23.67;;;;;;;;5051167;28;11532;-83
2023/02/07 01:37:13;;;;;;;;;29.00;23.00;;;;;;;;5025719;28;11624;-83
2023/02/07 01:39:40;;;;;;;;;32.00;23.33;;;;;;;;5045697;28;11571;-83
2023/02/07 01:42:15;;;;;;;;;29.33;22.33;;;;;;;;5049751;28;11548;-82
2023/02/07 01:45:04;;;;;;;;;33.00;28.33;;;;;;;;5042924;28;11688;-80
2023/02/07 01:47:34;;;;;;;;;26.00;18.33;;;;;;;;5048176;28;12579;-80
2023/02/07 01:50:04;;;;;;;;;35.67;28.67;;;;;;;;5045668;28;11650;-81
2023/02/07 01:52:36;;;;;;;;;33.67;28.00;;;;;;;;5029632;28;8837;-84
2023/02/07 01:55:08;;;;;;;;;22.67;22.00;;;;;;;;5048428;28;8886;-83
2023/02/07 01:57:36;;;;;;;;;31.00;28.33;;;;;;;;5011107;28;8855;-83
2023/02/07 02:00:05;;;;;;;;;23.00;21.67;;;;;;;;5050232;28;11563;-83
2023/02/07 02:02:35;;;;;;;;;28.00;24.00;;;;;;;;5033902;28;8803;-83
2023/02/07 02:05:05;;;;;;;;;27.67;24.33;;;;;;;;5015865;28;11570;-83
2023/02/07 02:07:33;;;;;;;;;33.33;26.00;;;;;;;;5048639;28;11541;-83
2023/02/07 02:10:01;;;;;;;;;38.00;33.00;;;;;;;;5049654;28;9316;-83
2023/02/07 02:13:00;;;;;;;;;26.00;23.67;;;;;;;;5028162;28;8886;-84
2023/02/07 02:15:35;;;;;;;;;23.67;18.33;;;;;;;;5032407;28;8974;-83
2023/02/07 02:18:17;;;;;;;;;30.00;26.33;;;;;;;;5048382;28;11563;-84
2023/02/07 02:21:35;;;;;;;;;21.33;21.33;;;;;;;;5047506;28;8878;-84
2023/02/07 02:24:27;;;;;;;;;28.00;22.33;;;;;;;;5044181;28;11678;-82
2023/02/07 02:27:01;;;;;;;;;28.67;25.67;;;;;;;;5029432;28;8889;-83
2023/02/07 02:30:02;;;;;;;;;29.00;22.00;;;;;;;;5045889;28;8956;-82
2023/02/07 02:32:58;;;;;;;;;28.33;22.00;;;;;;;;5044334;28;8827;-83
2023/02/07 02:35:30;;;;;;;;;31.33;31.00;;;;;;;;5029477;28;8860;-83
2023/02/07 02:38:06;;;;;;;;;35.00;28.00;;;;;;;;5046086;28;8847;-83
2023/02/07 02:40:37;;;;;;;;;32.67;24.67;;;;;;;;5051246;28;8856;-83
2023/02/07 02:43:09;;;;;;;;;34.00;31.33;;;;;;;;5044122;28;8861;-83
2023/02/07 02:45:42;;;;;;;;;25.00;25.00;;;;;;;;5043823;28;8842;-82
2023/02/07 02:48:12;;;;;;;;;27.00;22.00;;;;;;;;5012285;28;8880;-83
2023/02/07 02:50:40;;;;;;;;;31.67;26.67;;;;;;;;5034694;28;8866;-82
2023/02/07 02:53:09;;;;;;;;;34.00;29.67;;;;;;;;5010689;28;8894;-82
2023/02/07 02:56:06;;;;;;;;;29.00;27.00;;;;;;;;5043869;28;8856;-82
2023/02/07 02:58:44;;;;;;;;;25.00;24.33;;;;;;;;5046470;28;8834;-83
2023/02/07 03:01:19;;;;;;;;;37.33;32.00;;;;;;;;5025282;28;8805;-82
2023/02/07 03:04:18;;;;;;;;;36.67;27.67;;;;;;;;5031796;28;8842;-82
2023/02/07 03:06:57;;;;;;;;;27.67;25.33;;;;;;;;5011325;28;8855;-82
2023/02/07 03:09:35;;;;;;;;;38.33;25.33;;;;;;;;5031939;28;8861;-82
2023/02/07 03:12:11;;;;;;;;;34.00;30.00;;;;;;;;5030628;28;8859;-83
2023/02/07 03:14:49;;;;;;;;;28.67;24.00;;;;;;;;5047105;28;8856;-83
2023/02/07 03:17:21;;;;;;;;;30.33;24.67;;;;;;;;5044832;28;8864;-82
2023/02/07 03:19:55;;;;;;;;;18.33;16.00;;;;;;;;5043953;28;8949;-84
2023/02/07 03:22:25;;;;;;;;;42.00;32.33;;;;;;;;5014765;28;8866;-83
2023/02/07 03:24:56;;;;;;;;;32.67;24.67;;;;;;;;5007997;28;8836;-84
2023/02/07 03:27:25;;;;;;;;;23.67;23.67;;;;;;;;5042192;28;8856;-83
2023/02/07 03:29:56;;;;;;;;;31.67;27.67;;;;;;;;5029874;28;8854;-82
2023/02/07 03:32:26;;;;;;;;;24.33;22.33;;;;;;;;5045523;28;8843;-83
2023/02/07 03:34:58;;;;;;;;;30.00;23.00;;;;;;;;5012261;28;8867;-83
2023/02/07 03:37:28;;;;;;;;;32.67;26.00;;;;;;;;5042706;28;8874;-84
2023/02/07 03:39:56;;;;;;;;;39.00;32.67;;;;;;;;5046993;28;8860;-84
2023/02/07 03:42:28;;;;;;;;;29.33;24.33;;;;;;;;5028036;28;8813;-83
2023/02/07 03:44:57;;;;;;;;;31.00;27.67;;;;;;;;5046896;28;8886;-83
2023/02/07 03:47:26;;;;;;;;;29.33;25.33;;;;;;;;5051907;28;8857;-84
2023/02/07 03:49:56;;;;;;;;;32.00;28.67;;;;;;;;5040695;28;8858;-84
2023/02/07 03:52:23;;;;;;;;;34.33;29.33;;;;;;;;5037473;28;8844;-83
2023/02/07 03:54:51;;;;;;;;;36.33;30.00;;;;;;;;5038858;28;8863;-84
2023/02/07 03:57:19;;;;;;;;;33.67;25.00;;;;;;;;5043111;28;8850;-85
2023/02/07 03:59:46;;;;;;;;;47.00;32.33;;;;;;;;5032965;28;8836;-84
2023/02/07 04:02:13;;;;;;;;;40.67;31.00;;;;;;;;5049324;28;8803;-84
2023/02/07 04:04:41;;;;;;;;;40.67;36.67;;;;;;;;5041284;28;8872;-84
2023/02/07 04:07:11;;;;;;;;;32.00;29.33;;;;;;;;5042569;28;8884;-83
2023/02/07 04:09:38;;;;;;;;;39.00;33.00;;;;;;;;5011157;28;8895;-84
2023/02/07 04:12:07;;;;;;;;;38.33;35.00;;;;;;;;5042013;28;8936;-83
2023/02/07 04:14:35;;;;;;;;;43.00;29.67;;;;;;;;5013635;28;8866;-83
2023/02/07 04:17:02;;;;;;;;;36.33;29.67;;;;;;;;5027555;28;8852;-83
2023/02/07 04:19:30;;;;;;;;;38.00;30.33;;;;;;;;5038820;28;8954;-83
2023/02/07 04:21:57;;;;;;;;;39.67;30.33;;;;;;;;5044224;28;8868;-83
2023/02/07 04:24:30;;;;;;;;;28.33;28.33;;;;;;;;5041613;28;8981;-83
2023/02/07 04:26:58;;;;;;;;;35.33;29.33;;;;;;;;5027440;28;8982;-82
2023/02/07 04:29:25;;;;;;;;;17.33;17.33;;;;;;;;5033981;28;8847;-83
2023/02/07 04:31:52;;;;;;;;;34.67;27.67;;;;;;;;5027183;28;8798;-82
2023/02/07 04:34:20;;;;;;;;;16.67;16.33;;;;;;;;5044733;28;9639;-84
2023/02/07 04:36:47;;;;;;;;;32.33;25.33;;;;;;;;5053076;28;8863;-83
2023/02/07 04:39:15;;;;;;;;;32.33;28.33;;;;;;;;5045580;28;8884;-83
2023/02/07 04:41:44;;;;;;;;;26.00;25.67;;;;;;;;5011786;28;8860;-84
2023/02/07 04:44:11;;;;;;;;;38.67;32.33;;;;;;;;5047834;28;8848;-84
2023/02/07 04:46:39;;;;;;;;;31.00;25.00;;;;;;;;5043737;28;9673;-84
2023/02/07 04:49:06;;;;;;;;;36.67;31.00;;;;;;;;5048210;28;8987;-84
2023/02/07 04:51:34;;;;;;;;;36.00;34.00;;;;;;;;5042692;28;8872;-84
2023/02/07 04:54:01;;;;;;;;;36.33;32.00;;;;;;;;5042852;28;8849;-84
2023/02/07 04:56:29;;;;;;;;;35.00;28.33;;;;;;;;5041821;28;8896;-83
2023/02/07 04:58:58;;;;;;;;;30.33;27.00;;;;;;;;5029908;28;8841;-83
2023/02/07 05:01:26;;;;;;;;;39.00;31.67;;;;;;;;5045009;28;8827;-84
2023/02/07 05:03:53;;;;;;;;;30.33;25.33;;;;;;;;5045008;28;9637;-82
2023/02/07 05:06:21;;;;;;;;;34.00;28.00;;;;;;;;5025940;28;8870;-83
2023/02/07 05:08:49;;;;;;;;;30.33;28.00;;;;;;;;5024945;28;8881;-84
2023/02/07 05:11:17;;;;;;;;;32.00;29.00;;;;;;;;5031446;28;8831;-83
2023/02/07 05:13:44;;;;;;;;;27.33;27.33;;;;;;;;5029655;28;9666;-83
2023/02/07 05:16:14;;;;;;;;;29.00;27.33;;;;;;;;5023999;28;8896;-84
2023/02/07 05:18:42;;;;;;;;;35.00;30.33;;;;;;;;5029776;28;9011;-84
2023/02/07 05:21:10;;;;;;;;;28.00;19.67;;;;;;;;5051271;28;8894;-83
2023/02/07 05:23:37;;;;;;;;;31.33;24.33;;;;;;;;5046942;28;8883;-83
2023/02/07 05:26:05;;;;;;;;;33.33;27.00;;;;;;;;5048637;28;8848;-84
2023/02/07 05:28:33;;;;;;;;;25.00;19.67;;;;;;;;5012578;28;8814;-83
2023/02/07 05:31:01;;;;;;;;;26.33;25.33;;;;;;;;5046464;28;9624;-83
2023/02/07 05:33:28;;;;;;;;;33.33;26.33;;;;;;;;5028126;28;8840;-83
2023/02/07 05:35:56;;;;;;;;;37.00;25.00;;;;;;;;5028963;28;8887;-84
2023/02/07 05:38:24;;;;;;;;;28.00;27.33;;;;;;;;5044898;28;8945;-81
2023/02/07 05:40:52;;;;;;;;;29.00;26.33;;;;;;;;5041583;28;9667;-81
2023/02/07 05:43:19;;;;;;;;;34.33;29.00;;;;;;;;5044631;28;8836;-81
2023/02/07 05:45:47;;;;;;;;;27.33;26.33;;;;;;;;5047535;28;8895;-83
2023/02/07 05:48:20;;;;;;;;;36.67;26.00;;;;;;;;5046137;28;8848;-84
2023/02/07 05:50:50;;;;;;;;;29.00;27.33;;;;;;;;5048256;28;8856;-83
2023/02/07 05:53:18;;;;;;;;;43.67;31.33;;;;;;;;5028987;28;8846;-83
2023/02/07 05:55:46;;;;;;;;;29.33;27.33;;;;;;;;5027362;28;8908;-84
2023/02/07 05:58:13;;;;;;;;;33.67;32.33;;;;;;;;5025945;28;8938;-84
2023/02/07 06:00:41;;;;;;;;;40.67;32.67;;;;;;;;5029255;28;8809;-84
2023/02/07 06:03:08;;;;;;;;;36.00;32.67;;;;;;;;5049644;28;8876;-83
2023/02/07 06:05:36;;;;;;;;;39.33;27.33;;;;;;;;5023523;28;8856;-85
2023/02/07 06:08:06;;;;;;;;;34.33;31.33;;;;;;;;5045634;28;8866;-84
2023/02/07 06:10:36;;;;;;;;;40.67;25.33;;;;;;;;5028799;28;9013;-83
2023/02/07 06:13:04;;;;;;;;;29.33;29.33;;;;;;;;5041649;28;8894;-84
2023/02/07 06:15:31;;;;;;;;;42.67;32.67;;;;;;;;5042258;28;8848;-86
2023/02/07 06:17:59;;;;;;;;;33.33;29.67;;;;;;;;5038251;28;8856;-79
2023/02/07 06:20:29;;;;;;;;;38.00;32.33;;;;;;;;5022570;28;8872;-82
2023/02/07 06:22:57;;;;;;;;;31.67;28.33;;;;;;;;5025944;28;8848;-82
2023/02/07 06:25:26;;;;;;;;;28.67;25.67;;;;;;;;5012548;28;8895;-81
2023/02/07 06:27:56;;;;;;;;;33.67;28.00;;;;;;;;5028410;28;8865;-82
2023/02/07 06:30:23;;;;;;;;;31.67;29.67;;;;;;;;5010353;28;8972;-83
2023/02/07 06:32:53;;;;;;;;;25.00;24.00;;;;;;;;5047611;28;8879;-83
2023/02/07 06:35:21;;;;;;;;;31.00;25.00;;;;;;;;5027212;28;9686;-83
2023/02/07 06:37:48;;;;;;;;;26.67;19.67;;;;;;;;5042458;28;9038;-83
2023/02/07 06:40:16;;;;;;;;;19.67;15.33;;;;;;;;5037730;28;9011;-83
2023/02/07 06:42:46;;;;;;;;;33.33;27.00;;;;;;;;5040469;28;8865;-83
2023/02/07 06:45:14;;;;;;;;;33.67;32.00;;;;;;;;5040280;28;8891;-83
2023/02/07 06:47:42;;;;;;;;;34.33;27.33;;;;;;;;5042910;28;8847;-82
2023/02/07 06:50:10;;;;;;;;;27.00;23.67;;;;;;;;5023292;28;8855;-83
2023/02/07 06:52:37;;;;;;;;;34.00;28.33;;;;;;;;5040491;28;8844;-83
2023/02/07 06:55:06;;;;;;;;;33.00;25.67;;;;;;;;5023313;28;8994;-83
2023/02/07 06:57:33;;;;;;;;;26.33;21.33;;;;;;;;5038301;28;9733;-83
2023/02/07 07:00:03;;;;;;;;;26.33;24.67;;;;;;;;5043240;28;8867;-83
2023/02/07 07:02:31;;;;;;;;;29.67;25.00;;;;;;;;5049862;28;8965;-83
2023/02/07 07:04:58;;;;;;;;;29.67;25.00;;;;;;;;5043862;28;8865;-82
2023/02/07 07:07:26;;;;;;;;;32.67;30.00;;;;;;;;5047131;28;8881;-81
2023/02/07 07:09:54;;;;;;;;;33.67;31.00;;;;;;;;5032090;28;8871;-84
2023/02/07 07:12:21;;;;;;;;;27.33;19.00;;;;;;;;5023404;28;8859;-82
2023/02/07 07:14:49;;;;;;;;;25.00;22.00;;;;;;;;5022683;28;8896;-74
2023/02/07 07:17:18;;;;;;;;;23.00;20.00;;;;;;;;5031395;28;9686;-74
2023/02/07 07:19:46;;;;;;;;;24.67;21.67;;;;;;;;5052334;28;8886;-73
2023/02/07 07:22:13;;;;;;;;;27.67;22.33;;;;;;;;5028180;28;10028;-73
2023/02/07 07:24:41;;;;;;;;;33.00;29.33;;;;;;;;5028791;28;8858;-73
2023/02/07 07:27:08;;;;;;;;;35.00;23.33;;;;;;;;5045014;28;8986;-73
2023/02/07 07:29:36;;;;;;;;;23.67;23.00;;;;;;;;5042647;28;8933;-73
2023/02/07 07:32:03;;;;;;;;;30.67;23.33;;;;;;;;5042295;28;8784;-73
2023/02/07 07:34:33;;;;;;;;;29.67;26.33;;;;;;;;5044983;28;8852;-73
2023/02/07 07:37:00;;;;;;;;;27.33;22.33;;;;;;;;5054345;28;8857;-72
2023/02/07 07:39:28;;;;;;;;;24.00;18.33;;;;;;;;5025677;28;8843;-72
2023/02/07 07:41:55;;;;;;;;;21.00;19.33;;;;;;;;5028171;28;8832;-74
2023/02/07 07:44:23;;;;;;;;;30.33;23.33;;;;;;;;5041479;28;8886;-73
2023/02/07 07:46:51;;;;;;;;;21.33;21.00;;;;;;;;5048123;28;8832;-72
2023/02/07 07:49:19;;;;;;;;;29.00;24.67;;;;;;;;5031819;28;8850;-72
2023/02/07 07:51:48;;;;;;;;;22.33;15.00;;;;;;;;5048530;28;8837;-73
2023/02/07 07:54:16;;;;;;;;;36.00;24.67;;;;;;;;5040719;28;8880;-73
2023/02/07 07:56:43;;;;;;;;;28.33;24.00;;;;;;;;5045101;28;8848;-73
2023/02/07 07:59:11;;;;;;;;;27.33;21.33;;;;;;;;5028188;28;8844;-72
2023/02/07 08:01:38;;;;;;;;;21.67;21.67;;;;;;;;5023893;28;8793;-72
2023/02/07 08:04:06;;;;;;;;;27.00;23.67;;;;;;;;5021837;28;8892;-72
2023/02/07 08:06:34;;;;;;;;;24.67;21.67;;;;;;;;5043079;28;8886;-72
2023/02/07 08:09:03;;;;;;;;;26.00;17.00;;;;;;;;5042732;28;8855;-72
2023/02/07 08:11:30;;;;;;;;;28.00;24.00;;;;;;;;5042009;28;9726;-73
2023/02/07 08:13:57;;;;;;;;;33.67;26.67;;;;;;;;5039644;28;9263;-72
2023/02/07 08:16:25;;;;;;;;;38.00;33.00;;;;;;;;5044861;28;8843;-72
2023/02/07 08:18:53;;;;;;;;;27.00;25.33;;;;;;;;5027013;28;8846;-73
2023/02/07 08:21:25;;;;;;;;;29.67;24.33;;;;;;;;5032699;28;8882;-72
2023/02/07 08:23:53;;;;;;;;;20.67;17.67;;;;;;;;5043096;28;8985;-72
2023/02/07 08:26:22;;;;;;;;;32.00;30.33;;;;;;;;5042766;28;9633;-74
2023/02/07 08:28:51;;;;;;;;;28.00;22.67;;;;;;;;5047299;28;8967;-72
2023/02/07 08:31:19;;;;;;;;;38.33;31.33;;;;;;;;5040647;28;8805;-72
2023/02/07 08:33:46;;;;;;;;;32.00;26.33;;;;;;;;5040888;28;9012;-74
2023/02/07 08:36:14;;;;;;;;;26.33;20.33;;;;;;;;5042496;28;8985;-74
2023/02/07 08:38:41;;;;;;;;;23.33;20.33;;;;;;;;5040789;28;8832;-72
2023/02/07 08:41:09;;;;;;;;;29.67;23.33;;;;;;;;5040506;28;10925;-72
2023/02/07 08:43:38;;;;;;;;;23.33;21.00;;;;;;;;5041741;28;8836;-72
2023/02/07 08:46:06;;;;;;;;;28.00;19.67;;;;;;;;5042455;28;8964;-72
2023/02/07 08:48:34;;;;;;;;;11.67;11.67;;;;;;;;5044932;28;8994;-72
2023/02/07 08:51:05;;;;;;;;;24.00;20.00;;;;;;;;5044955;28;8858;-71
2023/02/07 08:53:33;;;;;;;;;18.67;15.67;;;;;;;;5044181;28;8826;-72
2023/02/07 08:56:01;;;;;;;;;20.00;18.00;;;;;;;;5037184;28;8941;-72
2023/02/07 08:58:29;;;;;;;;;19.00;19.00;;;;;;;;5039542;28;8862;-72
2023/02/07 09:00:58;;;;;;;;;19.00;19.00;;;;;;;;5057559;28;8801;-72
2023/02/07 09:03:25;;;;;;;;;16.00;14.00;;;;;;;;5040741;28;11683;-71
2023/02/07 09:05:58;;;;;;;;;22.67;19.67;;;;;;;;5040549;28;11575;-73
2023/02/07 09:08:26;;;;;;;;;22.33;22.33;;;;;;;;5020763;28;11620;-71
2023/02/07 09:10:54;;;;;;;;;23.00;22.33;;;;;;;;5038771;28;8846;-72
2023/02/07 09:13:21;;;;;;;;;17.50;17.00;;;;;;;;5036950;28;11558;-74
2023/02/07 09:15:55;;;;;;;;;23.33;21.67;;;;;;;;5053600;28;11585;-72
2023/02/07 09:18:24;;;;;;;;;18.75;16.25;;;;;;;;5022293;28;11763;-72
2023/02/07 09:20:52;;;;;;;;;19.50;19.25;;;;;;;;5042968;28;11510;-72
2023/02/07 09:23:20;;;;;;;;;21.00;21.00;;;;;;;;5039077;28;11558;-72
2023/02/07 09:25:49;;;;;;;;;22.75;18.00;;;;;;;;5056090;28;11722;-72
2023/02/07 09:28:17;;;;;;;;;21.25;16.75;;;;;;;;5037729;28;11539;-73
2023/02/07 09:30:45;;;;;;;;;20.25;16.25;;;;;;;;5041568;28;11503;-72
2023/02/07 09:33:14;;;;;;;;;25.25;16.50;;;;;;;;5038283;28;11548;-72
2023/02/07 09:35:45;;;;;;;;;14.50;13.75;;;;;;;;5041611;28;11545;-72
2023/02/07 09:38:14;;;;;;;;;17.00;14.25;;;;;;;;5038418;28;11633;-72
2023/02/07 09:40:42;;;;;;;;;24.50;17.00;;;;;;;;5041930;28;11547;-72
2023/02/07 09:43:18;;;;;;;;;13.50;13.50;;;;;;;;5023173;28;11660;-72
2023/02/07 09:45:48;;;;;;;;;13.75;11.00;;;;;;;;5026065;28;11615;-72
2023/02/07 09:48:20;;;;;;;;;14.25;14.00;;;;;;;;5041880;28;11486;-72
2023/02/07 09:50:53;;;;;;;;;15.75;14.50;;;;;;;;5043948;28;11512;-71
2023/02/07 09:53:25;;;;;;;;;23.75;21.00;;;;;;;;5041549;28;11545;-73
2023/02/07 09:55:56;;;;;;;;;13.50;13.50;;;;;;;;5040248;28;11550;-72
2023/02/07 09:58:33;;;;;;;;;13.00;10.75;;;;;;;;5039163;28;11539;-72
2023/02/07 10:01:07;;;;;;;;;11.75;11.00;;;;;;;;5041236;28;12201;-72
2023/02/07 10:03:40;;;;;;;;;12.50;8.00;;;;;;;;5038949;28;11769;-72
2023/02/07 10:06:16;;;;;;;;;7.00;7.00;;;;;;;;5021869;28;11557;-73
2023/02/07 10:08:44;;;;;;;;;9.00;9.00;;;;;;;;5044040;28;11496;-72
2023/02/07 10:11:17;;;;;;;;;11.00;9.25;;;;;;;;5038707;28;12028;-72
2023/02/07 10:13:58;;;;;;;;;10.00;7.00;;;;;;;;5040822;28;12262;-72
2023/02/07 10:16:40;;;;;;;;;8.75;8.75;;;;;;;;5042178;28;11487;-72
2023/02/07 10:19:18;;;;;;;;;7.50;5.00;;;;;;;;5042105;28;11437;-73
2023/02/07 10:21:53;;;;;;;;;33.00;22.00;;;;;;;;5043199;28;11644;-72
2023/02/07 10:24:41;;;;;;;;;23.25;15.25;;;;;;;;5025243;28;11550;-72
2023/02/07 10:27:11;;;;;;;;;12.00;6.50;;;;;;;;5040225;28;11567;-73
2023/02/07 10:29:49;;;;;;;;;6.25;4.00;;;;;;;;5037832;28;11504;-73
2023/02/07 10:32:21;;;;;;;;;9.50;9.50;;;;;;;;5041897;28;11593;-73
2023/02/07 10:34:55;;;;;;;;;15.00;13.50;;;;;;;;5041404;28;12740;-73
2023/02/07 10:37:26;;;;;;;;;6.00;6.00;;;;;;;;5025466;28;11529;-73
2023/02/07 10:40:00;;;;;;;;;5.00;5.00;;;;;;;;5038972;28;11541;-73
2023/02/07 10:42:30;;;;;;;;;2.00;2.00;;;;;;;;5040897;28;12399;-78
2023/02/07 10:44:58;;;;;;;;;7.50;7.50;;;;;;;;5045635;28;11534;-72
2023/02/07 10:47:25;;;;;;;;;11.25;9.00;;;;;;;;5025632;28;11546;-72
2023/02/07 10:49:55;;;;;;;;;9.50;7.00;;;;;;;;5030397;28;11507;-71
2023/02/07 10:52:29;;;;;;;;;6.75;6.75;;;;;;;;5041139;28;11500;-73
2023/02/07 10:54:59;;;;;;;;;6.00;6.00;;;;;;;;5037397;28;11564;-72
2023/02/07 10:57:28;;;;;;;;;5.75;5.75;;;;;;;;5027326;28;11483;-73
2023/02/07 11:00:12;;;;;;;;;5.50;5.50;;;;;;;;5040141;28;11485;-73
2023/02/07 11:02:50;;;;;;;;;4.00;2.00;;;;;;;;5046609;28;11467;-71
2023/02/07 11:05:31;;;;;;;;;7.00;7.00;;;;;;;;5044646;28;11418;-73
2023/02/07 11:11:29;;;;;;;;;6.75;6.75;;;;;;;;5042681;28;11542;-74
2023/02/07 11:14:03;;;;;;;;;6.00;4.00;;;;;;;;5040844;28;11621;-74
2023/02/07 11:16:31;;;;;;;;;7.00;7.00;;;;;;;;5039970;28;11418;-72
2023/02/07 11:18:59;;;;;;;;;6.75;6.00;;;;;;;;5043054;28;11525;-73
2023/02/07 11:21:30;;;;;;;;;8.00;8.00;;;;;;;;5046497;28;11488;-72
2023/02/07 11:24:01;;;;;;;;;8.00;6.00;;;;;;;;5039175;28;11598;-72
2023/02/07 11:26:31;;;;;;;;;6.00;6.00;;;;;;;;5041002;28;11417;-72
2023/02/07 11:29:06;;;;;;;;;8.00;8.00;;;;;;;;5041536;28;12242;-72
2023/02/07 11:31:36;;;;;;;;;6.50;6.50;;;;;;;;5035065;28;11368;-72
2023/02/07 11:34:37;;;;;;;;;11.25;10.25;;;;;;;;5037014;28;11406;-72
2023/02/07 11:37:26;;;;;;;;;7.25;6.00;;;;;;;;5037793;28;11432;-73
2023/02/07 11:39:55;;;;;;;;;12.00;9.75;;;;;;;;5036863;28;11121;-72
2023/02/07 11:42:27;;;;;;;;;10.50;8.75;;;;;;;;5035991;28;11436;-72
2023/02/07 11:44:55;;;;;;;;;8.50;8.00;;;;;;;;5032957;28;11047;-72
2023/02/07 11:47:26;;;;;;;;;6.00;6.00;;;;;;;;5034729;28;11110;-72
2023/02/07 11:49:57;;;;;;;;;10.75;9.50;;;;;;;;5035463;28;10977;-73
2023/02/07 11:52:25;;;;;;;;;2.75;2.75;;;;;;;;5035328;28;11094;-73
2023/02/07 11:54:54;;;;;;;;;8.50;7.00;;;;;;;;5033705;28;11055;-73
2023/02/07 11:57:24;;;;;;;;;6.00;6.00;;;;;;;;5019822;28;10995;-73
2023/02/07 12:00:05;;;;;;;;;5.75;5.75;;;;;;;;5039989;28;10990;-72
2023/02/07 12:02:34;;;;;;;;;7.00;7.00;;;;;;;;5043642;28;10910;-73
2023/02/07 12:05:14;;;;;;;;;5.00;5.00;;;;;;;;5020691;28;10969;-73
2023/02/07 12:07:44;;;;;;;;;7.00;7.00;;;;;;;;5019690;28;10854;-74
2023/02/07 12:10:14;;;;;;;;;6.50;4.50;;;;;;;;5037374;28;11617;-73
2023/02/07 12:12:46;;;;;;;;;9.25;8.00;;;;;;;;5020047;28;10724;-73
2023/02/07 12:15:17;;;;;;;;;5.25;4.25;;;;;;;;5040019;28;10634;-75
2023/02/07 12:17:56;;;;;;;;;3.25;3.25;;;;;;;;5039599;28;10559;-73
2023/02/07 12:20:26;;;;;;;;;6.00;6.00;;;;;;;;5041233;28;10544;-73
2023/02/07 12:22:58;;;;;;;;;5.00;4.00;;;;;;;;5039279;28;10574;-73
2023/02/07 12:25:29;;;;;;;;;6.00;4.50;;;;;;;;5042516;28;10407;-72
2023/02/07 12:28:04;;;;;;;;;3.25;3.25;;;;;;;;5023425;28;10414;-73
2023/02/07 12:30:35;;;;;;;;;5.50;3.25;;;;;;;;5040833;28;10331;-72
2023/02/07 12:33:10;;;;;;;;;7.00;4.00;;;;;;;;5023720;28;10281;-74
2023/02/07 12:35:43;;;;;;;;;4.00;4.00;;;;;;;;5043221;28;10329;-73
2023/02/07 12:38:16;;;;;;;;;8.00;6.00;;;;;;;;5011083;28;10046;-73
2023/02/07 12:40:48;;;;;;;;;8.50;6.50;;;;;;;;5021948;28;10776;-72
2023/02/07 12:43:23;;;;;;;;;8.00;4.00;;;;;;;;5042597;28;10091;-72
2023/02/07 12:46:07;;;;;;;;;5.00;5.00;;;;;;;;5042648;28;10053;-72
2023/02/07 12:48:52;;;;;;;;;4.75;4.75;;;;;;;;5022763;28;9892;-74
2023/02/07 12:51:28;;;;;;;;;7.00;7.00;;;;;;;;5038684;28;9854;-71
2023/02/07 12:54:13;;;;;;;;;4.00;4.00;;;;;;;;5039775;28;9853;-73
2023/02/07 12:56:45;;;;;;;;;8.50;8.00;;;;;;;;5042495;28;9821;-74
2023/02/07 12:59:23;;;;;;;;;7.75;4.75;;;;;;;;5028779;28;9791;-73
2023/02/07 13:01:56;;;;;;;;;4.25;4.25;;;;;;;;5038103;28;9865;-72
2023/02/07 13:05:19;;;;;;;;;7.25;5.00;;;;;;;;5046882;28;9610;-72
2023/02/07 13:07:55;;;;;;;;;7.50;7.50;;;;;;;;4954194;28;9898;-72
2023/02/07 13:10:27;;;;;;;;;5.75;5.75;;;;;;;;5011525;28;10511;-72
2023/02/07 13:12:58;;;;;;;;;7.25;7.00;;;;;;;;5049684;28;9661;-72
2023/02/07 13:15:35;;;;;;;;;5.00;5.00;;;;;;;;5029539;28;9669;-71
2023/02/07 13:18:07;;;;;;;;;3.00;3.00;;;;;;;;5050255;28;9540;-71
2023/02/07 13:20:47;;;;;;;;;9.50;8.25;;;;;;;;5045807;28;9475;-72
2023/02/07 13:23:17;;;;;;;;;8.00;5.75;;;;;;;;5028538;28;9774;-72
2023/02/07 13:25:47;;;;;;;;;5.00;5.00;;;;;;;;5047966;28;9616;-72
2023/02/07 13:28:19;;;;;;;;;5.00;5.00;;;;;;;;5050864;28;9547;-70
2023/02/07 13:30:48;;;;;;;;;4.00;4.00;;;;;;;;5044641;28;9377;-71
2023/02/07 13:33:30;;;;;;;;;6.25;6.25;;;;;;;;5015797;28;9484;-72
2023/02/07 13:36:02;;;;;;;;;5.33;5.33;;;;;;;;5030009;28;9375;-72
2023/02/07 13:38:46;;;;;;;;;5.33;5.33;;;;;;;;5018744;28;9395;-71
2023/02/07 13:41:17;;;;;;;;;5.33;4.00;;;;;;;;5035225;28;9247;-71
2023/02/07 13:43:56;;;;;;;;;5.00;5.00;;;;;;;;5034987;28;9102;-72
2023/02/07 13:46:54;;;;;;;;;5.67;4.33;;;;;;;;5015661;28;9096;-71
2023/02/07 13:49:28;;;;;;;;;4.33;4.33;;;;;;;;5033616;28;9110;-72
2023/02/07 13:52:01;;;;;;;;;5.67;5.33;;;;;;;;5034287;28;9181;-72
2023/02/07 13:54:35;;;;;;;;;8.67;6.33;;;;;;;;5036640;28;9256;-72
2023/02/07 14:00:23;;;;;;;;;7.33;7.33;;;;;;;;5049080;28;9180;-72
2023/02/07 14:02:55;;;;;;;;;9.67;8.00;;;;;;;;5041312;28;9172;-71
2023/02/07 14:05:25;;;;;;;;;11.33;8.00;;;;;;;;5046991;28;9281;-71
2023/02/07 14:07:59;;;;;;;;;5.00;5.00;;;;;;;;5050361;28;9320;-71
2023/02/07 14:10:44;;;;;;;;;5.33;5.00;;;;;;;;5014151;28;9348;-72
2023/02/07 14:13:23;;;;;;;;;9.00;4.00;;;;;;;;5045589;28;9360;-71
2023/02/07 14:15:57;;;;;;;;;6.33;6.00;;;;;;;;5040705;28;9318;-71
2023/02/07 14:18:48;;;;;;;;;9.33;6.00;;;;;;;;5046115;28;9423;-71
2023/02/07 14:21:40;;;;;;;;;11.33;8.00;;;;;;;;5011074;28;9276;-72
2023/02/07 14:24:21;;;;;;;;;5.00;5.00;;;;;;;;5028642;28;9290;-72
2023/02/07 14:27:03;;;;;;;;;5.00;5.00;;;;;;;;5050818;28;9190;-71
2023/02/07 14:29:51;;;;;;;;;8.33;8.33;;;;;;;;5045956;28;9324;-71
2023/02/07 14:32:40;;;;;;;;;10.00;9.00;;;;;;;;5049162;28;9280;-72
2023/02/07 14:35:31;;;;;;;;;11.67;8.33;;;;;;;;5046685;28;9402;-72
2023/02/07 14:38:08;;;;;;;;;4.33;4.33;;;;;;;;5044376;28;10168;-71
2023/02/07 14:40:52;;;;;;;;;6.67;6.67;;;;;;;;5047668;28;9220;-72
2023/02/07 14:43:24;;;;;;;;;8.67;5.67;;;;;;;;5048163;28;9330;-72
2023/02/07 14:46:05;;;;;;;;;6.00;6.00;;;;;;;;5045009;28;9234;-72
2023/02/07 14:48:39;;;;;;;;;5.67;5.67;;;;;;;;5047739;28;10061;-71
2023/02/07 14:51:13;;;;;;;;;5.67;5.67;;;;;;;;5047033;28;9280;-72
2023/02/07 14:53:43;;;;;;;;;4.67;4.67;;;;;;;;5042750;28;9245;-71
2023/02/07 14:56:21;;;;;;;;;2.67;2.00;;;;;;;;5043415;28;9307;-72
2023/02/07 14:58:48;;;;;;;;;7.33;5.00;;;;;;;;5042650;28;9177;-72
2023/02/07 15:01:18;;;;;;;;;6.33;6.33;;;;;;;;5042595;28;9036;-71
2023/02/07 15:03:47;;;;;;;;;8.00;8.00;;;;;;;;5046698;28;9477;-72
2023/02/07 15:06:20;;;;;;;;;9.00;9.00;;;;;;;;5046175;28;9477;-72